sensor_id;sensor_type;location;lat;lon;timestamp;pressure;altitude;pressure_sealevel;temperature;humidity
56400;BME280;42298;53.638;9.876;2022-10-16T00:00:15;100649.84;;;17.54;71.00
56400;BME280;42298;53.638;9.876;2022-10-16T00:02:40;100655.13;;;17.59;70.97
56400;BME280;42298;53.638;9.876;2022-10-16T00:05:06;100647.06;;;17.54;70.95
56400;BME280;42298;53.638;9.876;2022-10-16T00:07:31;100694.31;;;17.81;70.71
56400;BME280;42298;53.638;9.876;2022-10-16T00:09:56;100663.22;;;17.64;70.77
56400;BME280;42298;53.638;9.876;2022-10-16T00:12:21;100694.13;;;17.74;70.81
56400;BME280;42298;53.638;9.876;2022-10-16T00:14:47;100688.81;;;17.69;70.75
56400;BME280;42298;53.638;9.876;2022-10-16T00:17:12;100666.63;;;17.57;70.70
56400;BME280;42298;53.638;9.876;2022-10-16T00:19:37;100659.81;;;17.55;70.62
56400;BME280;42298;53.638;9.876;2022-10-16T00:22:04;100660.69;;;17.59;70.14
56400;BME280;42298;53.638;9.876;2022-10-16T00:24:30;100676.88;;;17.69;70.24
56400;BME280;42298;53.638;9.876;2022-10-16T00:26:55;100697.44;;;17.80;69.71
56400;BME280;42298;53.638;9.876;2022-10-16T00:29:20;100652.63;;;17.54;69.91
56400;BME280;42298;53.638;9.876;2022-10-16T00:31:46;100685.25;;;17.69;69.87
56400;BME280;42298;53.638;9.876;2022-10-16T00:34:11;100713.38;;;17.79;69.27
56400;BME280;42298;53.638;9.876;2022-10-16T00:36:36;100700.78;;;17.70;69.11
56400;BME280;42298;53.638;9.876;2022-10-16T00:39:02;100688.91;;;17.73;69.04
56400;BME280;42298;53.638;9.876;2022-10-16T00:41:28;100705.28;;;17.74;68.77
56400;BME280;42298;53.638;9.876;2022-10-16T00:43:56;100664.56;;;17.54;68.10
56400;BME280;42298;53.638;9.876;2022-10-16T00:46:28;100709.41;;;17.80;67.82
56400;BME280;42298;53.638;9.876;2022-10-16T00:49:13;100711.28;;;17.92;68.03
56400;BME280;42298;53.638;9.876;2022-10-16T00:54:09;100713.72;;;17.93;67.30
56400;BME280;42298;53.638;9.876;2022-10-16T00:56:35;100716.69;;;17.85;67.41
56400;BME280;42298;53.638;9.876;2022-10-16T00:59:07;100718.41;;;17.89;67.02
56400;BME280;42298;53.638;9.876;2022-10-16T01:01:36;100700.78;;;17.70;66.81
56400;BME280;42298;53.638;9.876;2022-10-16T01:04:01;100675.50;;;17.47;66.91
56400;BME280;42298;53.638;9.876;2022-10-16T01:06:44;100716.78;;;17.73;66.38
56400;BME280;42298;53.638;9.876;2022-10-16T01:09:16;100723.66;;;17.63;66.73
56400;BME280;42298;53.638;9.876;2022-10-16T01:17:11;100726.53;;;17.51;66.86
56400;BME280;42298;53.638;9.876;2022-10-16T01:20:10;100735.69;;;17.52;66.78
56400;BME280;42298;53.638;9.876;2022-10-16T01:22:57;100729.13;;;17.44;67.20
56400;BME280;42298;53.638;9.876;2022-10-16T01:25:44;100735.72;;;17.40;67.38
56400;BME280;42298;53.638;9.876;2022-10-16T01:28:11;100725.66;;;17.35;67.15
56400;BME280;42298;53.638;9.876;2022-10-16T01:30:40;100737.84;;;17.31;67.27
56400;BME280;42298;53.638;9.876;2022-10-16T01:33:16;100732.91;;;17.24;67.24
56400;BME280;42298;53.638;9.876;2022-10-16T01:35:47;100737.19;;;17.22;67.32
56400;BME280;42298;53.638;9.876;2022-10-16T01:38:19;100737.81;;;17.15;67.71
56400;BME280;42298;53.638;9.876;2022-10-16T01:40:50;100716.03;;;17.05;67.45
56400;BME280;42298;53.638;9.876;2022-10-16T01:43:20;100742.09;;;17.12;67.48
56400;BME280;42298;53.638;9.876;2022-10-16T01:45:48;100717.34;;;17.07;67.41
56400;BME280;42298;53.638;9.876;2022-10-16T01:48:16;100736.75;;;17.20;67.62
56400;BME280;42298;53.638;9.876;2022-10-16T01:50:50;100718.75;;;17.01;67.27
56400;BME280;42298;53.638;9.876;2022-10-16T01:53:17;100736.53;;;17.12;67.20
56400;BME280;42298;53.638;9.876;2022-10-16T01:55:46;100737.72;;;17.11;67.32
56400;BME280;42298;53.638;9.876;2022-10-16T01:58:14;100742.38;;;17.07;67.33
56400;BME280;42298;53.638;9.876;2022-10-16T02:00:43;100738.06;;;17.10;67.17
56400;BME280;42298;53.638;9.876;2022-10-16T02:03:11;100740.72;;;17.06;67.14
56400;BME280;42298;53.638;9.876;2022-10-16T02:05:41;100732.06;;;16.96;67.23
56400;BME280;42298;53.638;9.876;2022-10-16T02:08:07;100714.16;;;16.81;67.36
56400;BME280;42298;53.638;9.876;2022-10-16T02:10:35;100743.78;;;17.01;67.24
56400;BME280;42298;53.638;9.876;2022-10-16T02:15:30;100749.69;;;17.00;66.85
56400;BME280;42298;53.638;9.876;2022-10-16T02:17:55;100726.53;;;16.84;67.26
56400;BME280;42298;53.638;9.876;2022-10-16T02:20:26;100736.63;;;16.88;67.38
56400;BME280;42298;53.638;9.876;2022-10-16T02:22:53;100739.44;;;16.76;67.13
56400;BME280;42298;53.638;9.876;2022-10-16T02:25:23;100724.97;;;16.71;67.43
56400;BME280;42298;53.638;9.876;2022-10-16T02:32:58;100700.56;;;16.40;67.26
56400;BME280;42298;53.638;9.876;2022-10-16T02:35:24;100754.41;;;16.60;67.55
56400;BME280;42298;53.638;9.876;2022-10-16T02:37:50;100732.06;;;16.44;67.54
56400;BME280;42298;53.638;9.876;2022-10-16T02:40:17;100705.44;;;16.31;67.64
56400;BME280;42298;53.638;9.876;2022-10-16T02:42:43;100746.75;;;16.57;67.51
56400;BME280;42298;53.638;9.876;2022-10-16T02:45:10;100706.00;;;16.37;67.16
56400;BME280;42298;53.638;9.876;2022-10-16T02:47:36;100756.41;;;16.47;67.29
56400;BME280;42298;53.638;9.876;2022-10-16T02:50:02;100753.16;;;16.45;67.34
56400;BME280;42298;53.638;9.876;2022-10-16T02:52:28;100747.38;;;16.50;67.65
56400;BME280;42298;53.638;9.876;2022-10-16T02:54:53;100725.09;;;16.38;67.39
56400;BME280;42298;53.638;9.876;2022-10-16T02:57:19;100736.25;;;16.50;67.55
56400;BME280;42298;53.638;9.876;2022-10-16T02:59:44;100697.31;;;16.50;66.33
56400;BME280;42298;53.638;9.876;2022-10-16T03:02:11;100699.41;;;16.53;65.94
56400;BME280;42298;53.638;9.876;2022-10-16T03:04:36;100723.94;;;16.39;66.69
56400;BME280;42298;53.638;9.876;2022-10-16T03:07:02;100753.03;;;16.42;66.78
56400;BME280;42298;53.638;9.876;2022-10-16T03:09:28;100744.56;;;16.38;67.08
56400;BME280;42298;53.638;9.876;2022-10-16T03:11:53;100715.25;;;16.17;67.12
56400;BME280;42298;53.638;9.876;2022-10-16T03:14:18;100742.69;;;16.30;67.39
56400;BME280;42298;53.638;9.876;2022-10-16T03:16:44;100741.31;;;16.24;67.62
56400;BME280;42298;53.638;9.876;2022-10-16T03:19:09;100737.75;;;16.24;67.61
56400;BME280;42298;53.638;9.876;2022-10-16T03:21:35;100739.22;;;16.21;67.68
56400;BME280;42298;53.638;9.876;2022-10-16T03:24:00;100684.25;;;15.91;67.67
56400;BME280;42298;53.638;9.876;2022-10-16T03:26:25;100707.03;;;15.96;67.67
56400;BME280;42298;53.638;9.876;2022-10-16T03:28:52;100704.75;;;15.98;67.80
56400;BME280;42298;53.638;9.876;2022-10-16T03:31:17;100733.56;;;16.06;67.99
56400;BME280;42298;53.638;9.876;2022-10-16T03:33:42;100754.06;;;16.13;67.91
56400;BME280;42298;53.638;9.876;2022-10-16T03:36:09;100740.88;;;16.10;68.08
56400;BME280;42298;53.638;9.876;2022-10-16T03:38:34;100742.81;;;16.10;67.82
56400;BME280;42298;53.638;9.876;2022-10-16T03:41:00;100710.50;;;15.93;68.43
56400;BME280;42298;53.638;9.876;2022-10-16T03:43:25;100688.63;;;15.80;68.06
56400;BME280;42298;53.638;9.876;2022-10-16T03:45:51;100748.25;;;16.06;68.28
56400;BME280;42298;53.638;9.876;2022-10-16T03:48:17;100699.97;;;15.99;68.24
56400;BME280;42298;53.638;9.876;2022-10-16T03:50:42;100728.38;;;16.16;67.31
56400;BME280;42298;53.638;9.876;2022-10-16T03:53:08;100716.31;;;16.12;67.16
56400;BME280;42298;53.638;9.876;2022-10-16T03:55:34;100726.03;;;16.18;67.60
56400;BME280;42298;53.638;9.876;2022-10-16T03:57:59;100723.25;;;16.18;67.03
56400;BME280;42298;53.638;9.876;2022-10-16T04:00:25;100759.03;;;16.32;67.60
56400;BME280;42298;53.638;9.876;2022-10-16T04:02:50;100756.50;;;16.27;67.47
56400;BME280;42298;53.638;9.876;2022-10-16T04:05:15;100732.03;;;15.96;67.59
56400;BME280;42298;53.638;9.876;2022-10-16T04:07:41;100788.56;;;16.24;67.73
56400;BME280;42298;53.638;9.876;2022-10-16T04:10:06;100742.22;;;15.92;67.77
56400;BME280;42298;53.638;9.876;2022-10-16T04:12:32;100788.53;;;16.12;68.03
56400;BME280;42298;53.638;9.876;2022-10-16T04:14:57;100736.66;;;15.80;67.92
56400;BME280;42298;53.638;9.876;2022-10-16T04:17:23;100746.13;;;15.79;68.15
56400;BME280;42298;53.638;9.876;2022-10-16T04:19:48;100763.84;;;15.87;68.08
56400;BME280;42298;53.638;9.876;2022-10-16T04:22:13;100757.03;;;15.84;68.22
56400;BME280;42298;53.638;9.876;2022-10-16T04:24:39;100796.78;;;16.09;67.90
56400;BME280;42298;53.638;9.876;2022-10-16T04:27:04;100748.22;;;15.82;67.91
56400;BME280;42298;53.638;9.876;2022-10-16T04:29:30;100760.50;;;15.93;67.70
56400;BME280;42298;53.638;9.876;2022-10-16T04:31:55;100792.63;;;16.15;67.56
56400;BME280;42298;53.638;9.876;2022-10-16T04:34:21;100790.88;;;16.10;67.86
56400;BME280;42298;53.638;9.876;2022-10-16T04:36:49;100803.94;;;16.10;67.79
56400;BME280;42298;53.638;9.876;2022-10-16T04:39:14;100806.59;;;16.06;68.02
56400;BME280;42298;53.638;9.876;2022-10-16T04:41:40;100778.06;;;15.85;67.90
56400;BME280;42298;53.638;9.876;2022-10-16T04:44:05;100776.28;;;15.69;68.68
56400;BME280;42298;53.638;9.876;2022-10-16T04:46:30;100769.81;;;15.65;68.42
56400;BME280;42298;53.638;9.876;2022-10-16T04:48:56;100806.88;;;15.81;68.16
56400;BME280;42298;53.638;9.876;2022-10-16T04:51:21;100786.72;;;15.72;68.49
56400;BME280;42298;53.638;9.876;2022-10-16T04:53:47;100820.63;;;16.10;67.80
56400;BME280;42298;53.638;9.876;2022-10-16T04:56:12;100782.00;;;15.84;67.65
56400;BME280;42298;53.638;9.876;2022-10-16T04:58:37;100767.31;;;15.84;67.80
56400;BME280;42298;53.638;9.876;2022-10-16T05:01:03;100767.22;;;15.92;67.47
56400;BME280;42298;53.638;9.876;2022-10-16T05:03:28;100766.63;;;15.87;67.74
56400;BME280;42298;53.638;9.876;2022-10-16T05:05:54;100788.28;;;15.93;67.44
56400;BME280;42298;53.638;9.876;2022-10-16T05:08:19;100814.38;;;16.13;67.58
56400;BME280;42298;53.638;9.876;2022-10-16T05:10:45;100826.25;;;15.89;68.67
56400;BME280;42298;53.638;9.876;2022-10-16T05:13:11;100787.28;;;15.65;68.94
56400;BME280;42298;53.638;9.876;2022-10-16T05:15:36;100829.13;;;15.93;68.78
56400;BME280;42298;53.638;9.876;2022-10-16T05:18:02;100808.66;;;15.97;68.48
56400;BME280;42298;53.638;9.876;2022-10-16T05:20:27;100826.66;;;16.12;68.45
56400;BME280;42298;53.638;9.876;2022-10-16T05:22:53;100781.91;;;15.93;68.10
56400;BME280;42298;53.638;9.876;2022-10-16T05:25:18;100795.59;;;15.98;68.35
56400;BME280;42298;53.638;9.876;2022-10-16T05:27:47;100827.47;;;16.24;68.23
56400;BME280;42298;53.638;9.876;2022-10-16T05:30:13;100831.28;;;16.32;68.26
56400;BME280;42298;53.638;9.876;2022-10-16T05:32:38;100799.53;;;15.97;68.25
56400;BME280;42298;53.638;9.876;2022-10-16T05:35:04;100822.13;;;16.07;68.26
56400;BME280;42298;53.638;9.876;2022-10-16T05:37:30;100861.88;;;16.32;68.39
56400;BME280;42298;53.638;9.876;2022-10-16T05:39:55;100858.88;;;16.37;67.81
56400;BME280;42298;53.638;9.876;2022-10-16T05:42:20;100852.50;;;16.36;67.89
56400;BME280;42298;53.638;9.876;2022-10-16T05:44:46;100826.66;;;16.24;68.37
56400;BME280;42298;53.638;9.876;2022-10-16T05:47:12;100846.00;;;16.32;68.11
56400;BME280;42298;53.638;9.876;2022-10-16T05:49:37;100802.31;;;15.97;68.22
56400;BME280;42298;53.638;9.876;2022-10-16T05:52:03;100849.81;;;16.28;68.41
56400;BME280;42298;53.638;9.876;2022-10-16T05:54:28;100812.03;;;16.03;68.47
56400;BME280;42298;53.638;9.876;2022-10-16T05:56:54;100823.25;;;16.06;68.51
56400;BME280;42298;53.638;9.876;2022-10-16T05:59:19;100823.03;;;15.99;68.82
56400;BME280;42298;53.638;9.876;2022-10-16T06:01:44;100826.38;;;16.05;68.76
56400;BME280;42298;53.638;9.876;2022-10-16T06:04:10;100846.69;;;16.29;68.71
56400;BME280;42298;53.638;9.876;2022-10-16T06:06:35;100839.03;;;16.14;68.67
56400;BME280;42298;53.638;9.876;2022-10-16T06:09:02;100859.34;;;16.27;68.82
56400;BME280;42298;53.638;9.876;2022-10-16T06:11:30;100851.44;;;16.29;68.78
56400;BME280;42298;53.638;9.876;2022-10-16T06:13:57;100843.34;;;16.24;68.70
56400;BME280;42298;53.638;9.876;2022-10-16T06:16:25;100812.38;;;16.01;68.96
56400;BME280;42298;53.638;9.876;2022-10-16T06:18:54;100859.34;;;16.27;68.80
56400;BME280;42298;53.638;9.876;2022-10-16T06:21:23;100875.69;;;16.40;68.76
56400;BME280;42298;53.638;9.876;2022-10-16T06:23:51;100879.41;;;16.44;68.57
56400;BME280;42298;53.638;9.876;2022-10-16T06:26:19;100874.56;;;16.53;67.81
56400;BME280;42298;53.638;9.876;2022-10-16T06:28:45;100875.47;;;16.45;68.45
56400;BME280;42298;53.638;9.876;2022-10-16T06:31:12;100867.13;;;16.45;68.48
56400;BME280;42298;53.638;9.876;2022-10-16T06:33:38;100870.25;;;16.44;68.17
56400;BME280;42298;53.638;9.876;2022-10-16T06:36:05;100858.06;;;16.36;68.61
56400;BME280;42298;53.638;9.876;2022-10-16T06:38:35;100883.34;;;16.55;68.32
56400;BME280;42298;53.638;9.876;2022-10-16T06:41:00;100875.81;;;16.44;68.56
56400;BME280;42298;53.638;9.876;2022-10-16T06:43:28;100854.81;;;16.34;68.43
56400;BME280;42298;53.638;9.876;2022-10-16T06:45:56;100900.63;;;16.61;68.50
56400;BME280;42298;53.638;9.876;2022-10-16T06:48:22;100897.75;;;16.69;68.62
56400;BME280;42298;53.638;9.876;2022-10-16T06:50:59;100897.03;;;16.84;68.14
56400;BME280;42298;53.638;9.876;2022-10-16T06:53:28;100904.91;;;17.06;67.96
56400;BME280;42298;53.638;9.876;2022-10-16T06:55:53;100882.91;;;17.13;67.69
56400;BME280;42298;53.638;9.876;2022-10-16T06:58:19;100914.19;;;17.35;67.09
56400;BME280;42298;53.638;9.876;2022-10-16T07:00:45;100894.09;;;17.29;67.44
56400;BME280;42298;53.638;9.876;2022-10-16T07:03:11;100869.31;;;17.24;66.98
56400;BME280;42298;53.638;9.876;2022-10-16T07:05:43;100922.59;;;17.62;66.58
56400;BME280;42298;53.638;9.876;2022-10-16T07:08:08;100925.38;;;17.62;66.43
56400;BME280;42298;53.638;9.876;2022-10-16T07:10:34;100901.88;;;17.75;66.28
56400;BME280;42298;53.638;9.876;2022-10-16T07:13:00;100920.59;;;17.75;66.41
56400;BME280;42298;53.638;9.876;2022-10-16T07:15:26;100912.72;;;17.65;66.40
56400;BME280;42298;53.638;9.876;2022-10-16T07:17:52;100893.34;;;17.68;66.48
56400;BME280;42298;53.638;9.876;2022-10-16T07:20:17;100889.72;;;17.68;66.12
56400;BME280;42298;53.638;9.876;2022-10-16T07:22:43;100932.50;;;17.87;66.20
56400;BME280;42298;53.638;9.876;2022-10-16T07:25:09;100928.69;;;17.80;66.48
56400;BME280;42298;53.638;9.876;2022-10-16T07:27:36;100947.38;;;17.91;66.17
56400;BME280;42298;53.638;9.876;2022-10-16T07:30:02;100940.81;;;17.99;66.42
56400;BME280;42298;53.638;9.876;2022-10-16T07:32:27;100929.81;;;17.91;66.40
56400;BME280;42298;53.638;9.876;2022-10-16T07:34:53;100941.81;;;18.07;66.00
56400;BME280;42298;53.638;9.876;2022-10-16T07:37:19;100961.69;;;18.33;66.03
56400;BME280;42298;53.638;9.876;2022-10-16T07:39:44;100932.91;;;18.29;65.55
56400;BME280;42298;53.638;9.876;2022-10-16T07:42:09;100966.19;;;18.65;64.85
56400;BME280;42298;53.638;9.876;2022-10-16T07:44:36;100960.69;;;18.68;64.76
56400;BME280;42298;53.638;9.876;2022-10-16T07:47:01;100955.66;;;18.74;64.68
56400;BME280;42298;53.638;9.876;2022-10-16T07:49:27;100968.72;;;18.70;64.86
56400;BME280;42298;53.638;9.876;2022-10-16T07:51:53;100978.75;;;18.59;64.42
56400;BME280;42298;53.638;9.876;2022-10-16T07:54:18;100972.22;;;18.67;64.38
56400;BME280;42298;53.638;9.876;2022-10-16T07:56:43;100940.53;;;18.44;64.58
56400;BME280;42298;53.638;9.876;2022-10-16T07:59:10;100991.03;;;18.70;64.37
56400;BME280;42298;53.638;9.876;2022-10-16T08:01:36;100939.97;;;18.38;64.15
56400;BME280;42298;53.638;9.876;2022-10-16T08:04:01;100973.91;;;18.56;64.39
56400;BME280;42298;53.638;9.876;2022-10-16T08:06:26;100973.41;;;18.38;65.16
56400;BME280;42298;53.638;9.876;2022-10-16T08:08:52;100980.06;;;18.61;64.50
56400;BME280;42298;53.638;9.876;2022-10-16T08:11:17;100955.38;;;18.48;64.64
56400;BME280;42298;53.638;9.876;2022-10-16T08:13:43;100984.63;;;18.69;64.41
56400;BME280;42298;53.638;9.876;2022-10-16T08:16:08;100977.09;;;18.70;64.61
56400;BME280;42298;53.638;9.876;2022-10-16T08:18:36;100957.81;;;18.80;64.17
56400;BME280;42298;53.638;9.876;2022-10-16T08:21:02;100993.03;;;19.47;63.43
56400;BME280;42298;53.638;9.876;2022-10-16T08:23:28;100991.31;;;19.77;62.04
56400;BME280;42298;53.638;9.876;2022-10-16T08:25:55;101012.63;;;20.01;61.04
56400;BME280;42298;53.638;9.876;2022-10-16T08:28:21;101004.47;;;20.11;60.78
56400;BME280;42298;53.638;9.876;2022-10-16T08:30:47;100989.63;;;20.26;60.28
56400;BME280;42298;53.638;9.876;2022-10-16T08:33:13;101007.13;;;20.42;60.31
56400;BME280;42298;53.638;9.876;2022-10-16T08:35:38;100958.72;;;20.19;59.92
56400;BME280;42298;53.638;9.876;2022-10-16T08:38:05;101005.00;;;20.36;59.75
56400;BME280;42298;53.638;9.876;2022-10-16T08:40:34;101004.72;;;20.22;60.41
56400;BME280;42298;53.638;9.876;2022-10-16T08:50:45;100983.88;;;20.80;58.34
56400;BME280;42298;53.638;9.876;2022-10-16T08:53:36;101014.00;;;21.09;58.27
56400;BME280;42298;53.638;9.876;2022-10-16T08:56:03;100977.19;;;21.07;57.88
56400;BME280;42298;53.638;9.876;2022-10-16T08:58:30;101008.78;;;21.30;57.26
56400;BME280;42298;53.638;9.876;2022-10-16T09:00:58;100986.00;;;21.09;56.92
56400;BME280;42298;53.638;9.876;2022-10-16T09:06:14;101027.97;;;21.54;56.71
56400;BME280;42298;53.638;9.876;2022-10-16T09:09:11;101030.88;;;21.61;56.01
56400;BME280;42298;53.638;9.876;2022-10-16T09:11:49;101042.59;;;21.89;56.12
56400;BME280;42298;53.638;9.876;2022-10-16T09:16:57;101055.66;;;22.08;55.64
56400;BME280;42298;53.638;9.876;2022-10-16T09:19:30;101063.75;;;22.13;55.64
56400;BME280;42298;53.638;9.876;2022-10-16T09:21:59;101052.66;;;21.94;54.87
56400;BME280;42298;53.638;9.876;2022-10-16T09:24:26;101065.31;;;22.10;54.61
56400;BME280;42298;53.638;9.876;2022-10-16T09:26:52;101034.31;;;22.00;53.73
56400;BME280;42298;53.638;9.876;2022-10-16T09:29:20;101073.38;;;22.12;54.28
56400;BME280;42298;53.638;9.876;2022-10-16T09:31:47;101012.19;;;21.95;54.76
56400;BME280;42298;53.638;9.876;2022-10-16T09:34:36;101054.34;;;22.28;53.38
56400;BME280;42298;53.638;9.876;2022-10-16T09:37:09;101056.81;;;22.33;53.35
56400;BME280;42298;53.638;9.876;2022-10-16T09:39:57;101064.47;;;22.36;52.83
56400;BME280;42298;53.638;9.876;2022-10-16T09:42:27;101053.34;;;22.43;53.31
56400;BME280;42298;53.638;9.876;2022-10-16T09:44:56;101070.09;;;22.66;52.69
56400;BME280;42298;53.638;9.876;2022-10-16T09:47:23;101072.28;;;22.83;53.32
56400;BME280;42298;53.638;9.876;2022-10-16T09:50:24;101050.78;;;22.97;51.77
56400;BME280;42298;53.638;9.876;2022-10-16T09:52:51;101068.56;;;22.72;52.25
56400;BME280;42298;53.638;9.876;2022-10-16T09:55:18;101084.72;;;22.82;52.69
56400;BME280;42298;53.638;9.876;2022-10-16T09:57:51;101074.69;;;22.84;52.28
56400;BME280;42298;53.638;9.876;2022-10-16T10:00:17;101102.78;;;22.84;52.65
56400;BME280;42298;53.638;9.876;2022-10-16T10:02:43;101102.25;;;22.72;51.88
56400;BME280;42298;53.638;9.876;2022-10-16T10:05:20;101093.81;;;22.42;52.14
56400;BME280;42298;53.638;9.876;2022-10-16T10:07:57;101090.63;;;22.43;51.81
56400;BME280;42298;53.638;9.876;2022-10-16T10:10:26;101087.38;;;22.41;51.87
56400;BME280;42298;53.638;9.876;2022-10-16T10:12:53;101107.50;;;22.77;53.33
56400;BME280;42298;53.638;9.876;2022-10-16T10:15:19;101081.19;;;22.92;51.38
56400;BME280;42298;53.638;9.876;2022-10-16T10:17:51;101054.06;;;22.70;51.17
56400;BME280;42298;53.638;9.876;2022-10-16T10:22:51;101093.25;;;22.92;51.31
56400;BME280;42298;53.638;9.876;2022-10-16T10:25:26;101098.59;;;23.04;51.43
56400;BME280;42298;53.638;9.876;2022-10-16T10:28:17;101104.34;;;23.15;51.28
56400;BME280;42298;53.638;9.876;2022-10-16T10:36:10;101104.19;;;23.37;50.20
56400;BME280;42298;53.638;9.876;2022-10-16T10:44:42;101117.84;;;23.02;51.55
56400;BME280;42298;53.638;9.876;2022-10-16T10:50:14;101125.69;;;22.86;51.08
56400;BME280;42298;53.638;9.876;2022-10-16T10:58:15;101120.66;;;23.02;50.42
56400;BME280;42298;53.638;9.876;2022-10-16T11:00:49;101109.84;;;23.04;50.07
56400;BME280;42298;53.638;9.876;2022-10-16T11:05:52;101133.13;;;23.41;49.46
56400;BME280;42298;53.638;9.876;2022-10-16T11:16:26;101143.81;;;23.25;48.20
56400;BME280;42298;53.638;9.876;2022-10-16T11:19:12;101135.84;;;23.31;49.13
56400;BME280;42298;53.638;9.876;2022-10-16T11:21:46;101145.59;;;23.40;48.86
56400;BME280;42298;53.638;9.876;2022-10-16T11:24:37;101136.03;;;23.12;48.15
56400;BME280;42298;53.638;9.876;2022-10-16T11:27:09;101140.47;;;23.16;48.68
56400;BME280;42298;53.638;9.876;2022-10-16T11:29:43;101114.97;;;22.95;48.54
56400;BME280;42298;53.638;9.876;2022-10-16T11:32:21;101149.88;;;22.94;48.17
56400;BME280;42298;53.638;9.876;2022-10-16T11:34:52;101172.38;;;22.98;48.40
56400;BME280;42298;53.638;9.876;2022-10-16T11:37:30;101123.75;;;22.61;48.57
56400;BME280;42298;53.638;9.876;2022-10-16T11:40:14;101175.44;;;22.86;48.85
56400;BME280;42298;53.638;9.876;2022-10-16T11:42:48;101171.31;;;23.09;48.57
56400;BME280;42298;53.638;9.876;2022-10-16T11:45:39;101176.31;;;23.23;47.72
56400;BME280;42298;53.638;9.876;2022-10-16T11:50:57;101166.97;;;23.52;47.97
56400;BME280;42298;53.638;9.876;2022-10-16T11:54:00;101181.47;;;23.21;46.82
56400;BME280;42298;53.638;9.876;2022-10-16T11:56:28;101168.50;;;23.09;46.55
56400;BME280;42298;53.638;9.876;2022-10-16T11:58:58;101174.13;;;23.09;46.20
56400;BME280;42298;53.638;9.876;2022-10-16T12:01:40;101158.13;;;23.13;46.62
56400;BME280;42298;53.638;9.876;2022-10-16T12:06:48;101194.22;;;23.11;46.21
56400;BME280;42298;53.638;9.876;2022-10-16T12:09:29;101201.03;;;23.10;45.98
56400;BME280;42298;53.638;9.876;2022-10-16T12:11:56;101175.41;;;22.82;45.88
56400;BME280;42298;53.638;9.876;2022-10-16T12:16:55;101173.28;;;22.46;45.97
56400;BME280;42298;53.638;9.876;2022-10-16T12:19:23;101215.91;;;22.81;46.67
56400;BME280;42298;53.638;9.876;2022-10-16T12:21:50;101206.72;;;22.84;45.22
56400;BME280;42298;53.638;9.876;2022-10-16T12:24:39;101226.88;;;22.90;44.73
56400;BME280;42298;53.638;9.876;2022-10-16T12:27:22;101224.59;;;23.02;45.76
56400;BME280;42298;53.638;9.876;2022-10-16T12:30:00;101218.97;;;22.99;45.17
56400;BME280;42298;53.638;9.876;2022-10-16T12:32:31;101210.78;;;22.87;44.48
56400;BME280;42298;53.638;9.876;2022-10-16T12:34:57;101232.63;;;23.00;44.55
56400;BME280;42298;53.638;9.876;2022-10-16T12:37:26;101222.91;;;22.94;44.17
56400;BME280;42298;53.638;9.876;2022-10-16T12:39:54;101234.94;;;22.95;44.64
56400;BME280;42298;53.638;9.876;2022-10-16T12:42:30;101224.59;;;22.99;45.62
56400;BME280;42298;53.638;9.876;2022-10-16T12:44:56;101247.22;;;23.13;44.84
56400;BME280;42298;53.638;9.876;2022-10-16T12:47:23;101207.28;;;22.67;44.00
56400;BME280;42298;53.638;9.876;2022-10-16T12:49:52;101252.53;;;22.88;44.42
56400;BME280;42298;53.638;9.876;2022-10-16T12:52:28;101252.00;;;22.79;44.21
56400;BME280;42298;53.638;9.876;2022-10-16T12:54:57;101235.47;;;22.74;45.28
56400;BME280;42298;53.638;9.876;2022-10-16T13:00:45;101268.38;;;22.25;45.15
56400;BME280;42298;53.638;9.876;2022-10-16T13:03:25;101262.66;;;22.18;46.04
56400;BME280;42298;53.638;9.876;2022-10-16T13:06:30;101270.03;;;22.29;46.28
56400;BME280;42298;53.638;9.876;2022-10-16T13:14:29;101292.78;;;22.47;46.65
56400;BME280;42298;53.638;9.876;2022-10-16T13:19:45;101298.97;;;22.33;46.81
56400;BME280;42298;53.638;9.876;2022-10-16T13:27:54;101289.44;;;22.15;47.26
56400;BME280;42298;53.638;9.876;2022-10-16T13:30:30;101309.03;;;22.34;46.96
56400;BME280;42298;53.638;9.876;2022-10-16T13:35:31;101316.94;;;22.29;47.54
56400;BME280;42298;53.638;9.876;2022-10-16T13:38:05;101300.16;;;22.10;47.69
56400;BME280;42298;53.638;9.876;2022-10-16T13:40:30;101325.44;;;22.32;48.05
56400;BME280;42298;53.638;9.876;2022-10-16T13:42:59;101336.47;;;22.44;47.70
56400;BME280;42298;53.638;9.876;2022-10-16T13:45:25;101328.25;;;22.55;47.61
56400;BME280;42298;53.638;9.876;2022-10-16T13:48:11;101338.09;;;22.68;47.05
56400;BME280;42298;53.638;9.876;2022-10-16T13:50:37;101334.06;;;22.69;47.48
56400;BME280;42298;53.638;9.876;2022-10-16T13:53:06;101292.78;;;22.47;47.56
56400;BME280;42298;53.638;9.876;2022-10-16T13:55:31;101310.28;;;22.60;47.18
56400;BME280;42298;53.638;9.876;2022-10-16T13:58:26;101314.94;;;22.75;47.08
56400;BME280;42298;53.638;9.876;2022-10-16T14:00:58;101351.69;;;22.92;46.83
56400;BME280;42298;53.638;9.876;2022-10-16T14:03:25;101348.06;;;22.92;46.81
56400;BME280;42298;53.638;9.876;2022-10-16T14:05:57;101363.53;;;22.79;45.40
56400;BME280;42298;53.638;9.876;2022-10-16T14:08:25;101327.59;;;22.42;46.43
56400;BME280;42298;53.638;9.876;2022-10-16T14:10:59;101351.31;;;22.45;45.12
56400;BME280;42298;53.638;9.876;2022-10-16T14:13:31;101371.56;;;22.54;45.37
56400;BME280;42298;53.638;9.876;2022-10-16T14:16:02;101374.03;;;22.59;45.88
56400;BME280;42298;53.638;9.876;2022-10-16T14:18:30;101370.97;;;22.45;45.76
56400;BME280;42298;53.638;9.876;2022-10-16T14:21:03;101378.56;;;22.44;45.87
56400;BME280;42298;53.638;9.876;2022-10-16T14:23:33;101372.50;;;22.42;45.59
56400;BME280;42298;53.638;9.876;2022-10-16T14:26:26;101380.50;;;22.40;45.76
56400;BME280;42298;53.638;9.876;2022-10-16T14:29:12;101396.63;;;22.24;44.99